sensor_id;sensor_type;location;lat;lon;timestamp;pressure;altitude;pressure_sealevel;temperature;humidity
11349;BME280;5729;43.570;27.826;2022-12-29T00:01:33;100293.97;;;4.21;100.00
11349;BME280;5729;43.570;27.826;2022-12-29T00:03:59;100296.38;;;4.23;100.00
11349;BME280;5729;43.570;27.826;2022-12-29T00:06:25;100303.81;;;4.26;100.00
11349;BME280;5729;43.570;27.826;2022-12-29T00:08:50;100289.94;;;4.24;100.00
11349;BME280;5729;43.570;27.826;2022-12-29T00:11:19;100295.28;;;4.24;100.00
11349;BME280;5729;43.570;27.826;2022-12-29T00:13:45;100290.78;;;4.19;100.00
11349;BME280;5729;43.570;27.826;2022-12-29T00:16:31;100293.19;;;4.21;100.00
11349;BME280;5729;43.570;27.826;2022-12-29T00:18:57;100292.09;;;4.22;100.00
11349;BME280;5729;43.570;27.826;2022-12-29T00:21:24;100297.16;;;4.23;100.00
11349;BME280;5729;43.570;27.826;2022-12-29T00:26:58;100303.28;;;4.24;100.00
11349;BME280;5729;43.570;27.826;2022-12-29T00:29:51;100299.78;;;4.05;100.00
11349;BME280;5729;43.570;27.826;2022-12-29T00:32:35;100296.25;;;4.09;100.00
11349;BME280;5729;43.570;27.826;2022-12-29T00:35:31;100297.19;;;4.18;100.00
11349;BME280;5729;43.570;27.826;2022-12-29T00:38:01;100291.38;;;4.16;100.00
11349;BME280;5729;43.570;27.826;2022-12-29T00:40:47;100292.38;;;4.20;100.00
11349;BME280;5729;43.570;27.826;2022-12-29T00:43:31;100290.31;;;4.17;100.00
11349;BME280;5729;43.570;27.826;2022-12-29T00:46:15;100290.75;;;4.24;100.00
11349;BME280;5729;43.570;27.826;2022-12-29T00:48:40;100285.41;;;4.24;100.00
11349;BME280;5729;43.570;27.826;2022-12-29T00:51:24;100284.63;;;4.24;100.00
11349;BME280;5729;43.570;27.826;2022-12-29T00:53:50;100288.88;;;4.25;100.00
11349;BME280;5729;43.570;27.826;2022-12-29T00:56:15;100276.66;;;4.19;100.00
11349;BME280;5729;43.570;27.826;2022-12-29T00:58:41;100277.44;;;4.19;100.00
11349;BME280;5729;43.570;27.826;2022-12-29T01:01:08;100262.19;;;4.25;100.00
11349;BME280;5729;43.570;27.826;2022-12-29T01:03:35;100274.16;;;4.27;100.00
11349;BME280;5729;43.570;27.826;2022-12-29T01:06:03;100259.75;;;4.28;100.00
11349;BME280;5729;43.570;27.826;2022-12-29T01:08:29;100247.50;;;4.27;100.00
11349;BME280;5729;43.570;27.826;2022-12-29T01:11:09;100240.84;;;4.25;100.00
11349;BME280;5729;43.570;27.826;2022-12-29T01:13:35;100234.16;;;4.27;100.00
11349;BME280;5729;43.570;27.826;2022-12-29T01:16:02;100234.63;;;4.29;100.00
11349;BME280;5729;43.570;27.826;2022-12-29T01:18:27;100233.13;;;4.23;100.00
11349;BME280;5729;43.570;27.826;2022-12-29T01:21:04;100220.19;;;4.30;100.00
11349;BME280;5729;43.570;27.826;2022-12-29T01:23:30;100223.38;;;4.32;100.00
11349;BME280;5729;43.570;27.826;2022-12-29T01:25:56;100216.47;;;4.31;100.00
11349;BME280;5729;43.570;27.826;2022-12-29T01:28:22;100210.84;;;4.33;100.00
11349;BME280;5729;43.570;27.826;2022-12-29T01:30:47;100202.59;;;4.29;100.00
11349;BME280;5729;43.570;27.826;2022-12-29T01:33:13;100207.88;;;4.34;100.00
11349;BME280;5729;43.570;27.826;2022-12-29T01:35:39;100202.03;;;4.32;100.00
11349;BME280;5729;43.570;27.826;2022-12-29T01:38:05;100209.09;;;4.23;100.00
11349;BME280;5729;43.570;27.826;2022-12-29T01:40:30;100201.31;;;4.27;100.00
11349;BME280;5729;43.570;27.826;2022-12-29T01:42:56;100191.94;;;4.29;100.00
11349;BME280;5729;43.570;27.826;2022-12-29T01:45:21;100188.97;;;4.31;100.00
11349;BME280;5729;43.570;27.826;2022-12-29T01:48:02;100188.19;;;4.30;100.00
11349;BME280;5729;43.570;27.826;2022-12-29T01:50:39;100194.13;;;4.27;100.00
11349;BME280;5729;43.570;27.826;2022-12-29T01:56:01;100190.41;;;4.23;100.00
11349;BME280;5729;43.570;27.826;2022-12-29T01:58:31;100192.94;;;4.15;100.00
11349;BME280;5729;43.570;27.826;2022-12-29T02:00:58;100185.38;;;4.22;100.00
11349;BME280;5729;43.570;27.826;2022-12-29T02:03:25;100190.94;;;4.25;100.00
11349;BME280;5729;43.570;27.826;2022-12-29T02:08:52;100191.50;;;4.22;100.00
11349;BME280;5729;43.570;27.826;2022-12-29T02:11:19;100190.47;;;4.18;100.00
11349;BME280;5729;43.570;27.826;2022-12-29T02:13:45;100184.41;;;4.13;100.00
11349;BME280;5729;43.570;27.826;2022-12-29T02:28:12;100195.19;;;4.26;100.00
11349;BME280;5729;43.570;27.826;2022-12-29T02:34:06;100187.09;;;4.31;100.00
11349;BME280;5729;43.570;27.826;2022-12-29T02:42:25;100179.59;;;4.33;100.00
11349;BME280;5729;43.570;27.826;2022-12-29T02:45:03;100173.97;;;4.35;100.00
11349;BME280;5729;43.570;27.826;2022-12-29T02:50:22;100175.06;;;4.34;100.00
11349;BME280;5729;43.570;27.826;2022-12-29T02:52:58;100170.00;;;4.32;100.00
11349;BME280;5729;43.570;27.826;2022-12-29T02:55:24;100165.47;;;4.33;100.00
11349;BME280;5729;43.570;27.826;2022-12-29T03:00:38;100175.19;;;4.24;100.00
11349;BME280;5729;43.570;27.826;2022-12-29T03:06:05;100187.25;;;4.21;100.00
11349;BME280;5729;43.570;27.826;2022-12-29T03:09:05;100180.03;;;4.22;100.00
11349;BME280;5729;43.570;27.826;2022-12-29T03:11:39;100176.06;;;4.19;100.00
11349;BME280;5729;43.570;27.826;2022-12-29T03:14:31;100182.47;;;4.18;100.00
11349;BME280;5729;43.570;27.826;2022-12-29T03:17:36;100186.53;;;4.16;100.00
11349;BME280;5729;43.570;27.826;2022-12-29T03:20:08;100166.16;;;4.01;100.00
11349;BME280;5729;43.570;27.826;2022-12-29T03:22:41;100159.50;;;3.98;100.00
11349;BME280;5729;43.570;27.826;2022-12-29T03:25:22;100174.31;;;4.10;100.00
11349;BME280;5729;43.570;27.826;2022-12-29T03:27:52;100177.25;;;4.08;100.00
11349;BME280;5729;43.570;27.826;2022-12-29T03:30:18;100171.44;;;4.06;100.00
11349;BME280;5729;43.570;27.826;2022-12-29T03:32:51;100176.09;;;3.95;100.00
11349;BME280;5729;43.570;27.826;2022-12-29T03:35:20;100182.22;;;3.96;100.00
11349;BME280;5729;43.570;27.826;2022-12-29T03:40:38;100170.19;;;3.98;100.00
11349;BME280;5729;43.570;27.826;2022-12-29T03:43:06;100179.25;;;3.97;100.00
11349;BME280;5729;43.570;27.826;2022-12-29T03:45:31;100185.41;;;3.98;100.00
11349;BME280;5729;43.570;27.826;2022-12-29T03:47:57;100175.25;;;4.00;100.00
11349;BME280;5729;43.570;27.826;2022-12-29T03:50:22;100175.25;;;4.00;100.00
11349;BME280;5729;43.570;27.826;2022-12-29T03:52:48;100174.97;;;4.01;100.00
11349;BME280;5729;43.570;27.826;2022-12-29T03:55:13;100175.25;;;4.00;100.00
11349;BME280;5729;43.570;27.826;2022-12-29T03:57:39;100174.44;;;3.99;100.00
11349;BME280;5729;43.570;27.826;2022-12-29T04:00:05;100168.81;;;4.01;100.00
11349;BME280;5729;43.570;27.826;2022-12-29T04:02:31;100174.44;;;3.99;100.00
11349;BME280;5729;43.570;27.826;2022-12-29T04:04:57;100175.53;;;3.98;100.00
11349;BME280;5729;43.570;27.826;2022-12-29T04:07:22;100184.88;;;3.96;100.00
11349;BME280;5729;43.570;27.826;2022-12-29T04:09:47;100189.13;;;3.97;100.00
11349;BME280;5729;43.570;27.826;2022-12-29T04:12:13;100177.66;;;3.96;100.00
11349;BME280;5729;43.570;27.826;2022-12-29T04:14:39;100159.41;;;3.85;100.00
11349;BME280;5729;43.570;27.826;2022-12-29T04:17:05;100179.06;;;3.94;100.00
11349;BME280;5729;43.570;27.826;2022-12-29T04:19:31;100184.09;;;3.95;100.00
11349;BME280;5729;43.570;27.826;2022-12-29T04:21:56;100174.00;;;3.92;100.00
11349;BME280;5729;43.570;27.826;2022-12-29T04:24:21;100183.31;;;3.95;100.00
11349;BME280;5729;43.570;27.826;2022-12-29T04:26:47;100179.63;;;3.91;100.00
11349;BME280;5729;43.570;27.826;2022-12-29T04:29:12;100180.41;;;3.91;100.00
11349;BME280;5729;43.570;27.826;2022-12-29T04:31:38;100179.91;;;3.89;100.00
11349;BME280;5729;43.570;27.826;2022-12-29T04:34:03;100182.28;;;3.91;100.00
11349;BME280;5729;43.570;27.826;2022-12-29T04:36:28;100183.72;;;3.83;100.00
11349;BME280;5729;43.570;27.826;2022-12-29T04:38:54;100188.75;;;3.85;100.00
11349;BME280;5729;43.570;27.826;2022-12-29T04:41:19;100188.47;;;3.86;100.00
11349;BME280;5729;43.570;27.826;2022-12-29T04:43:45;100188.97;;;3.88;100.00
11349;BME280;5729;43.570;27.826;2022-12-29T04:46:10;100196.47;;;3.86;100.00
11349;BME280;5729;43.570;27.826;2022-12-29T04:48:36;100190.84;;;3.88;100.00
11349;BME280;5729;43.570;27.826;2022-12-29T04:51:01;100196.97;;;3.88;100.00
11349;BME280;5729;43.570;27.826;2022-12-29T04:53:26;100198.06;;;3.87;100.00
11349;BME280;5729;43.570;27.826;2022-12-29T04:55:52;100191.50;;;3.80;100.00
11349;BME280;5729;43.570;27.826;2022-12-29T04:58:21;100197.63;;;3.80;100.00
11349;BME280;5729;43.570;27.826;2022-12-29T05:00:46;100202.66;;;3.82;100.00
11349;BME280;5729;43.570;27.826;2022-12-29T05:03:12;100191.59;;;3.70;100.00
11349;BME280;5729;43.570;27.826;2022-12-29T05:05:37;100207.00;;;3.73;100.00
11349;BME280;5729;43.570;27.826;2022-12-29T05:08:03;100198.00;;;3.69;100.00
11349;BME280;5729;43.570;27.826;2022-12-29T05:10:28;100197.25;;;3.63;100.00
11349;BME280;5729;43.570;27.826;2022-12-29T05:12:54;100194.94;;;3.56;100.00
11349;BME280;5729;43.570;27.826;2022-12-29T05:15:20;100200.50;;;3.60;100.00
11349;BME280;5729;43.570;27.826;2022-12-29T05:17:45;100201.31;;;3.60;100.00
11349;BME280;5729;43.570;27.826;2022-12-29T05:20:11;100210.38;;;3.59;100.00
11349;BME280;5729;43.570;27.826;2022-12-29T05:22:36;100206.13;;;3.58;100.00
11349;BME280;5729;43.570;27.826;2022-12-29T05:25:02;100210.66;;;3.58;100.00
11349;BME280;5729;43.570;27.826;2022-12-29T05:27:28;100205.84;;;3.60;100.00
11349;BME280;5729;43.570;27.826;2022-12-29T05:29:53;100205.03;;;3.59;100.00
11349;BME280;5729;43.570;27.826;2022-12-29T05:32:19;100201.84;;;3.57;100.00
11349;BME280;5729;43.570;27.826;2022-12-29T05:34:45;100207.47;;;3.56;100.00
11349;BME280;5729;43.570;27.826;2022-12-29T05:37:10;100204.81;;;3.56;100.00
11349;BME280;5729;43.570;27.826;2022-12-29T05:39:35;100202.13;;;3.56;100.00
11349;BME280;5729;43.570;27.826;2022-12-29T05:42:01;100201.06;;;3.57;100.00
11349;BME280;5729;43.570;27.826;2022-12-29T05:44:26;100214.66;;;3.55;100.00
11349;BME280;5729;43.570;27.826;2022-12-29T05:46:52;100206.91;;;3.59;100.00
11349;BME280;5729;43.570;27.826;2022-12-29T05:49:17;100198.13;;;3.58;100.00
11349;BME280;5729;43.570;27.826;2022-12-29T05:51:43;100192.28;;;3.56;100.00
11349;BME280;5729;43.570;27.826;2022-12-29T05:54:08;100185.19;;;3.47;100.00
11349;BME280;5729;43.570;27.826;2022-12-29T05:56:34;100175.06;;;3.44;100.00
11349;BME280;5729;43.570;27.826;2022-12-29T05:58:59;100177.38;;;3.50;100.00
11349;BME280;5729;43.570;27.826;2022-12-29T06:01:25;100181.44;;;3.48;100.00
11349;BME280;5729;43.570;27.826;2022-12-29T06:03:50;100194.41;;;3.54;100.00
11349;BME280;5729;43.570;27.826;2022-12-29T06:06:17;100193.31;;;3.60;100.00
11349;BME280;5729;43.570;27.826;2022-12-29T06:08:43;100188.78;;;3.61;100.00
11349;BME280;5729;43.570;27.826;2022-12-29T06:11:08;100187.91;;;3.65;100.00
11349;BME280;5729;43.570;27.826;2022-12-29T06:13:34;100195.56;;;3.72;100.00
11349;BME280;5729;43.570;27.826;2022-12-29T06:15:59;100204.31;;;3.78;100.00
11349;BME280;5729;43.570;27.826;2022-12-29T06:18:24;100215.72;;;3.83;100.00
11349;BME280;5729;43.570;27.826;2022-12-29T06:20:50;100202.66;;;3.82;100.00
11349;BME280;5729;43.570;27.826;2022-12-29T06:23:15;100212.69;;;3.90;100.00
11349;BME280;5729;43.570;27.826;2022-12-29T06:25:41;100209.75;;;3.91;100.00
11349;BME280;5729;43.570;27.826;2022-12-29T06:28:07;100197.22;;;3.92;100.00
11349;BME280;5729;43.570;27.826;2022-12-29T06:54:04;100182.41;;;4.23;100.00
11349;BME280;5729;43.570;27.826;2022-12-29T06:56:30;100195.38;;;4.30;100.00
11349;BME280;5729;43.570;27.826;2022-12-29T06:58:55;100193.69;;;4.39;100.00
11349;BME280;5729;43.570;27.826;2022-12-29T07:01:21;100198.09;;;4.49;100.00
11349;BME280;5729;43.570;27.826;2022-12-29T07:03:46;100193.16;;;4.56;100.00
11349;BME280;5729;43.570;27.826;2022-12-29T07:06:12;100197.84;;;4.64;100.00
11349;BME280;5729;43.570;27.826;2022-12-29T07:08:38;100199.09;;;4.71;100.00
11349;BME280;5729;43.570;27.826;2022-12-29T07:11:04;100196.84;;;4.79;100.00
11349;BME280;5729;43.570;27.826;2022-12-29T07:13:29;100193.59;;;4.82;100.00
11349;BME280;5729;43.570;27.826;2022-12-29T07:15:55;100195.31;;;4.91;100.00
11349;BME280;5729;43.570;27.826;2022-12-29T07:18:20;100202.38;;;5.01;100.00
11349;BME280;5729;43.570;27.826;2022-12-29T07:20:45;100208.72;;;5.05;100.00
11349;BME280;5729;43.570;27.826;2022-12-29T07:23:11;100209.44;;;5.10;100.00
11349;BME280;5729;43.570;27.826;2022-12-29T07:25:36;100207.78;;;5.15;100.00
11349;BME280;5729;43.570;27.826;2022-12-29T07:28:03;100209.56;;;5.19;100.00
11349;BME280;5729;43.570;27.826;2022-12-29T07:30:28;100201.16;;;5.26;100.00
11349;BME280;5729;43.570;27.826;2022-12-29T07:32:54;100209.69;;;5.28;100.00
11349;BME280;5729;43.570;27.826;2022-12-29T07:35:19;100212.25;;;5.33;100.00
11349;BME280;5729;43.570;27.826;2022-12-29T07:37:44;100214.88;;;5.38;100.00
11349;BME280;5729;43.570;27.826;2022-12-29T07:40:10;100210.03;;;5.40;100.00
11349;BME280;5729;43.570;27.826;2022-12-29T07:42:36;100216.56;;;5.47;100.00
11349;BME280;5729;43.570;27.826;2022-12-29T07:45:01;100212.22;;;5.52;100.00
11349;BME280;5729;43.570;27.826;2022-12-29T07:47:27;100211.91;;;5.53;100.00
11349;BME280;5729;43.570;27.826;2022-12-29T07:49:52;100205.19;;;5.56;100.00
11349;BME280;5729;43.570;27.826;2022-12-29T07:52:17;100222.25;;;5.73;100.00
11349;BME280;5729;43.570;27.826;2022-12-29T07:54:43;100214.53;;;5.86;100.00
11349;BME280;5729;43.570;27.826;2022-12-29T07:57:08;100218.00;;;6.00;100.00
11349;BME280;5729;43.570;27.826;2022-12-29T07:59:34;100226.63;;;6.24;100.00
11349;BME280;5729;43.570;27.826;2022-12-29T08:01:59;100225.63;;;6.34;100.00
11349;BME280;5729;43.570;27.826;2022-12-29T08:04:25;100217.78;;;6.51;100.00
11349;BME280;5729;43.570;27.826;2022-12-29T08:06:50;100221.31;;;6.60;100.00
11349;BME280;5729;43.570;27.826;2022-12-29T08:09:16;100229.63;;;6.72;100.00
11349;BME280;5729;43.570;27.826;2022-12-29T08:11:41;100219.41;;;6.74;100.00
11349;BME280;5729;43.570;27.826;2022-12-29T08:14:08;100224.47;;;6.76;100.00
11349;BME280;5729;43.570;27.826;2022-12-29T08:16:34;100220.00;;;6.93;100.00
11349;BME280;5729;43.570;27.826;2022-12-29T08:18:59;100227.16;;;6.98;100.00
11349;BME280;5729;43.570;27.826;2022-12-29T08:21:27;100236.66;;;7.04;100.00
11349;BME280;5729;43.570;27.826;2022-12-29T08:23:52;100233.22;;;7.12;100.00
11349;BME280;5729;43.570;27.826;2022-12-29T08:26:18;100225.06;;;7.17;100.00
11349;BME280;5729;43.570;27.826;2022-12-29T08:28:43;100216.88;;;7.22;100.00
11349;BME280;5729;43.570;27.826;2022-12-29T08:31:09;100223.78;;;7.37;100.00
11349;BME280;5729;43.570;27.826;2022-12-29T08:33:35;100207.97;;;7.36;100.00
11349;BME280;5729;43.570;27.826;2022-12-29T08:36:03;100214.56;;;7.52;100.00
11349;BME280;5729;43.570;27.826;2022-12-29T08:38:29;100218.84;;;7.61;100.00
11349;BME280;5729;43.570;27.826;2022-12-29T08:40:56;100213.03;;;7.68;100.00
11349;BME280;5729;43.570;27.826;2022-12-29T08:43:22;100210.56;;;7.80;100.00
11349;BME280;5729;43.570;27.826;2022-12-29T08:45:47;100207.66;;;7.99;100.00
11349;BME280;5729;43.570;27.826;2022-12-29T08:48:13;100206.19;;;8.50;100.00
11349;BME280;5729;43.570;27.826;2022-12-29T08:50:38;100196.84;;;9.25;100.00
11349;BME280;5729;43.570;27.826;2022-12-29T08:53:04;100190.09;;;9.95;100.00
11349;BME280;5729;43.570;27.826;2022-12-29T08:55:29;100187.50;;;10.36;100.00
11349;BME280;5729;43.570;27.826;2022-12-29T08:57:55;100186.63;;;10.86;100.00
11349;BME280;5729;43.570;27.826;2022-12-29T09:00:20;100189.59;;;11.26;100.00
11349;BME280;5729;43.570;27.826;2022-12-29T09:02:46;100181.78;;;11.57;100.00
11349;BME280;5729;43.570;27.826;2022-12-29T09:05:12;100185.19;;;11.79;100.00
11349;BME280;5729;43.570;27.826;2022-12-29T09:07:38;100174.38;;;11.79;100.00
11349;BME280;5729;43.570;27.826;2022-12-29T09:10:04;100187.31;;;11.85;100.00
11349;BME280;5729;43.570;27.826;2022-12-29T09:12:29;100191.69;;;11.65;100.00
11349;BME280;5729;43.570;27.826;2022-12-29T09:14:55;100175.25;;;11.58;100.00
11349;BME280;5729;43.570;27.826;2022-12-29T09:17:20;100177.53;;;11.81;100.00
11349;BME280;5729;43.570;27.826;2022-12-29T09:20:05;100169.00;;;11.91;100.00
11349;BME280;5729;43.570;27.826;2022-12-29T09:22:30;100174.16;;;12.08;100.00
11349;BME280;5729;43.570;27.826;2022-12-29T09:24:56;100175.72;;;12.21;100.00
11349;BME280;5729;43.570;27.826;2022-12-29T09:27:21;100162.75;;;12.27;100.00
11349;BME280;5729;43.570;27.826;2022-12-29T09:29:46;100163.38;;;12.48;100.00
11349;BME280;5729;43.570;27.826;2022-12-29T09:32:12;100157.13;;;12.72;100.00
11349;BME280;5729;43.570;27.826;2022-12-29T09:34:37;100155.09;;;12.97;100.00
11349;BME280;5729;43.570;27.826;2022-12-29T09:37:03;100152.38;;;13.25;100.00
11349;BME280;5729;43.570;27.826;2022-12-29T09:39:28;100142.84;;;13.47;100.00
11349;BME280;5729;43.570;27.826;2022-12-29T09:42:16;100135.78;;;13.58;100.00
11349;BME280;5729;43.570;27.826;2022-12-29T09:45:05;100128.78;;;13.88;100.00
11349;BME280;5729;43.570;27.826;2022-12-29T09:47:32;100125.78;;;14.28;100.00
11349;BME280;5729;43.570;27.826;2022-12-29T09:50:24;100125.09;;;14.89;100.00
11349;BME280;5729;43.570;27.826;2022-12-29T09:53:20;100117.69;;;15.09;91.88
11349;BME280;5729;43.570;27.826;2022-12-29T09:55:55;100110.50;;;15.66;89.02
11349;BME280;5729;43.570;27.826;2022-12-29T09:58:40;100104.44;;;16.32;82.60
11349;BME280;5729;43.570;27.826;2022-12-29T10:19:58;100081.00;;;18.59;55.33
11349;BME280;5729;43.570;27.826;2022-12-29T10:25:19;100077.63;;;18.03;57.23
11349;BME280;5729;43.570;27.826;2022-12-29T10:27:50;100074.81;;;18.97;54.61
11349;BME280;5729;43.570;27.826;2022-12-29T10:30:17;100075.22;;;19.31;52.99
11349;BME280;5729;43.570;27.826;2022-12-29T10:32:48;100071.63;;;20.02;50.29
11349;BME280;5729;43.570;27.826;2022-12-29T10:35:24;100069.22;;;20.28;49.59
11349;BME280;5729;43.570;27.826;2022-12-29T10:38:27;100078.00;;;20.72;47.45
11349;BME280;5729;43.570;27.826;2022-12-29T10:43:28;100080.31;;;19.86;46.87
11349;BME280;5729;43.570;27.826;2022-12-29T10:45:59;100072.91;;;19.72;46.46
11349;BME280;5729;43.570;27.826;2022-12-29T10:48:30;100079.53;;;19.18;48.05
11349;BME280;5729;43.570;27.826;2022-12-29T10:50:58;100078.75;;;19.53;47.87
11349;BME280;5729;43.570;27.826;2022-12-29T10:53:30;100080.22;;;20.11;46.65
11349;BME280;5729;43.570;27.826;2022-12-29T10:55:59;100080.19;;;20.18;45.62
11349;BME280;5729;43.570;27.826;2022-12-29T10:58:26;100074.44;;;19.77;44.61
11349;BME280;5729;43.570;27.826;2022-12-29T11:00:53;100078.16;;;20.33;43.75
11349;BME280;5729;43.570;27.826;2022-12-29T11:06:16;100069.84;;;20.61;43.44
11349;BME280;5729;43.570;27.826;2022-12-29T11:08:53;100071.00;;;20.67;43.37
11349;BME280;5729;43.570;27.826;2022-12-29T11:11:32;100077.97;;;19.45;45.68
11349;BME280;5729;43.570;27.826;2022-12-29T11:14:19;100070.16;;;18.94;47.26
11349;BME280;5729;43.570;27.826;2022-12-29T11:16:56;100065.84;;;18.97;47.56
11349;BME280;5729;43.570;27.826;2022-12-29T11:19:24;100070.50;;;18.78;48.10
11349;BME280;5729;43.570;27.826;2022-12-29T11:21:51;100066.97;;;18.67;47.58
11349;BME280;5729;43.570;27.826;2022-12-29T11:24:24;100064.34;;;17.98;50.47
11349;BME280;5729;43.570;27.826;2022-12-29T11:26:52;100061.22;;;18.00;50.81
11349;BME280;5729;43.570;27.826;2022-12-29T11:29:29;100055.00;;;17.99;51.33
11349;BME280;5729;43.570;27.826;2022-12-29T11:32:11;100057.13;;;17.65;49.60
11349;BME280;5729;43.570;27.826;2022-12-29T11:34:36;100054.50;;;17.25;50.53
11349;BME280;5729;43.570;27.826;2022-12-29T11:40:18;100047.56;;;16.20;54.08
11349;BME280;5729;43.570;27.826;2022-12-29T11:42:29;100036.03;;;15.70;56.49
11349;BME280;5729;43.570;27.826;2022-12-29T11:45:04;100037.16;;;15.69;59.05
11349;BME280;5729;43.570;27.826;2022-12-29T11:47:32;100039.69;;;15.55;61.36
11349;BME280;5729;43.570;27.826;2022-12-29T11:50:04;100038.31;;;15.42;63.11
11349;BME280;5729;43.570;27.826;2022-12-29T11:52:33;100027.13;;;15.20;65.27
11349;BME280;5729;43.570;27.826;2022-12-29T11:55:02;100035.25;;;15.20;68.38
11349;BME280;5729;43.570;27.826;2022-12-29T11:57:32;100025.56;;;14.97;67.75
11349;BME280;5729;43.570;27.826;2022-12-29T12:00:01;100017.31;;;14.89;73.42
11349;BME280;5729;43.570;27.826;2022-12-29T12:05:08;100025.16;;;14.33;85.77
11349;BME280;5729;43.570;27.826;2022-12-29T12:07:42;100015.72;;;14.27;91.93
11349;BME280;5729;43.570;27.826;2022-12-29T12:10:26;100018.81;;;14.26;95.68
11349;BME280;5729;43.570;27.826;2022-12-29T12:13:01;100028.06;;;14.25;97.28
11349;BME280;5729;43.570;27.826;2022-12-29T12:15:41;100023.88;;;14.08;92.30
11349;BME280;5729;43.570;27.826;2022-12-29T12:18:14;100020.50;;;14.14;95.13
11349;BME280;5729;43.570;27.826;2022-12-29T12:20:51;100009.25;;;14.12;90.47
11349;BME280;5729;43.570;27.826;2022-12-29T12:24:39;100015.16;;;14.18;95.12
11349;BME280;5729;43.570;27.826;2022-12-29T12:32:47;100008.31;;;14.24;94.67
11349;BME280;5729;43.570;27.826;2022-12-29T12:35:36;100001.31;;;14.23;95.08
11349;BME280;5729;43.570;27.826;2022-12-29T12:40:59;100003.25;;;14.23;95.85
11349;BME280;5729;43.570;27.826;2022-12-29T12:51:37;99993.19;;;14.04;97.53
11349;BME280;5729;43.570;27.826;2022-12-29T13:02:13;100000.94;;;13.67;96.04
11349;BME280;5729;43.570;27.826;2022-12-29T13:05:00;100007.41;;;13.43;90.69
11349;BME280;5729;43.570;27.826;2022-12-29T13:10:22;100000.31;;;13.23;96.40
11349;BME280;5729;43.570;27.826;2022-12-29T13:12:59;99997.19;;;13.21;98.36
11349;BME280;5729;43.570;27.826;2022-12-29T13:18:23;99994.13;;;13.06;83.14
11349;BME280;5729;43.570;27.826;2022-12-29T13:21:08;99994.72;;;13.00;88.68
11349;BME280;5729;43.570;27.826;2022-12-29T13:23:50;100006.34;;;13.00;82.46
11349;BME280;5729;43.570;27.826;2022-12-29T13:26:20;100014.97;;;12.90;84.60
11349;BME280;5729;43.570;27.826;2022-12-29T13:28:58;100006.34;;;12.85;87.57
11349;BME280;5729;43.570;27.826;2022-12-29T13:34:14;100008.97;;;12.81;90.43
11349;BME280;5729;43.570;27.826;2022-12-29T13:36:48;100011.66;;;12.81;89.47
11349;BME280;5729;43.570;27.826;2022-12-29T13:39:21;100008.97;;;12.81;90.80
11349;BME280;5729;43.570;27.826;2022-12-29T13:41:55;100008.69;;;12.70;86.68
11349;BME280;5729;43.570;27.826;2022-12-29T13:44:25;100013.56;;;12.65;87.00
11349;BME280;5729;43.570;27.826;2022-12-29T13:46:53;100009.88;;;12.57;91.38
11349;BME280;5729;43.570;27.826;2022-12-29T13:49:22;100010.56;;;12.54;92.35
11349;BME280;5729;43.570;27.826;2022-12-29T13:51:56;100009.38;;;12.52;96.82
11349;BME280;5729;43.570;27.826;2022-12-29T13:57:06;100012.53;;;12.26;92.78
11349;BME280;5729;43.570;27.826;2022-12-29T13:59:42;100011.09;;;12.16;95.29
11349;BME280;5729;43.570;27.826;2022-12-29T14:02:31;100008.84;;;12.18;100.00
11349;BME280;5729;43.570;27.826;2022-12-29T14:05:05;100007.63;;;12.16;100.00
11349;BME280;5729;43.570;27.826;2022-12-29T14:07:37;99993.34;;;12.03;100.00
11349;BME280;5729;43.570;27.826;2022-12-29T14:10:04;100002.59;;;12.02;100.00
11349;BME280;5729;43.570;27.826;2022-12-29T14:12:39;100001.84;;;11.89;100.00
11349;BME280;5729;43.570;27.826;2022-12-29T14:15:15;100002.19;;;11.88;100.00
11349;BME280;5729;43.570;27.826;2022-12-29T14:18:02;100002.66;;;11.78;100.00
11349;BME280;5729;43.570;27.826;2022-12-29T14:20:28;100006.38;;;11.73;100.00
11349;BME280;5729;43.570;27.826;2022-12-29T14:25:54;100014.50;;;11.61;100.00
11349;BME280;5729;43.570;27.826;2022-12-29T14:28:27;100014.97;;;11.51;100.00
11349;BME280;5729;43.570;27.826;2022-12-29T14:30:55;100017.88;;;11.46;100.00
11349;BME280;5729;43.570;27.826;2022-12-29T14:33:21;100013.84;;;11.40;100.00
11349;BME280;5729;43.570;27.826;2022-12-29T14:35:48;100016.88;;;11.26;100.00
11349;BME280;5729;43.570;27.826;2022-12-29T14:38:26;100019.44;;;11.22;100.00
11349;BME280;5729;43.570;27.826;2022-12-29T14:41:17;100015.28;;;11.13;100.00
11349;BME280;5729;43.570;27.826;2022-12-29T14:43:53;100008.53;;;11.07;100.00
11349;BME280;5729;43.570;27.826;2022-12-29T14:46:19;100014.50;;;11.00;100.00
11349;BME280;5729;43.570;27.826;2022-12-29T14:48:45;100014.94;;;10.90;100.00
11349;BME280;5729;43.570;27.826;2022-12-29T14:51:28;100013.13;;;10.82;100.00
11349;BME280;5729;43.570;27.826;2022-12-29T14:53:55;100017.16;;;10.76;100.00
11349;BME280;5729;43.570;27.826;2022-12-29T14:56:26;100019.16;;;10.67;100.00
11349;BME280;5729;43.570;27.826;2022-12-29T14:58:58;100024.66;;;10.58;100.00
11349;BME280;5729;43.570;27.826;2022-12-29T15:04:18;100021.31;;;10.40;100.00
11349;BME280;5729;43.570;27.826;2022-12-29T15:06:45;100020.75;;;10.35;100.00
11349;BME280;5729;43.570;27.826;2022-12-29T15:09:24;100018.16;;;10.26;100.00
11349;BME280;5729;43.570;27.826;2022-12-29T15:14:55;100019.19;;;10.13;100.00
11349;BME280;5729;43.570;27.826;2022-12-29T15:17:34;100015.88;;;10.07;100.00
11349;BME280;5729;43.570;27.826;2022-12-29T15:20:14;100019.91;;;10.01;100.00
11349;BME280;5729;43.570;27.826;2022-12-29T15:22:50;100023.13;;;9.95;100.00
11349;BME280;5729;43.570;27.826;2022-12-29T15:25:17;100022.06;;;9.87;100.00